| time (UTC) | temp C | wind direction | speed KPH | gust KPH | rain 1hr cm | rain 24hr cm | rain mn cm | humidity % | barometer mb |
| 20260905223425 | 14 | 228 | 0.0 | 0.0 | 0.00 | 0.00 | 0.00 | 61 | 1023.6 |
| 20260905222424 | 15 | 227 | 0.0 | 0.0 | 0.00 | 0.00 | 0.00 | 59 | 1023.6 |
| 20260905221424 | 16 | 233 | 0.0 | 0.0 | 0.00 | 0.00 | 0.00 | 56 | 1023.5 |
| 20260905220423 | 16 | 233 | 0.0 | 0.0 | 0.00 | 0.00 | 0.00 | 55 | 1023.7 |
| 20260905215423 | 16 | 244 | 3.2 | 4.8 | 0.00 | 0.00 | 0.25 | 55 | 1023.6 |
| 20260905214422 | 16 | 248 | 4.8 | 6.4 | 0.00 | 0.00 | 0.25 | 55 | 1023.3 |
| 20260905213422 | 17 | 242 | 3.2 | 4.8 | 0.00 | 0.00 | 0.25 | 55 | 1023.2 |
| 20260905212421 | 17 | 230 | 3.2 | 3.2 | 0.00 | 0.00 | 0.25 | 54 | 1023.2 |
| 20260905211420 | 17 | 236 | 3.2 | 4.8 | 0.00 | 0.00 | 0.25 | 54 | 1023.2 |
| 20260905210420 | 17 | 232 | 6.4 | 6.4 | 0.00 | 0.00 | 0.25 | 54 | 1022.9 |
| 20260905205419 | 17 | 259 | 6.4 | 8.0 | 0.00 | 0.00 | 0.25 | 55 | 1022.9 |
| 20260905204419 | 17 | 233 | 3.2 | 4.8 | 0.00 | 0.00 | 0.25 | 57 | 1022.6 |
| 20260905203418 | 17 | 235 | 3.2 | 4.8 | 0.00 | 0.00 | 0.25 | 57 | 1022.8 |
| 20260905202418 | 18 | 239 | 1.6 | 3.2 | 0.00 | 0.00 | 0.25 | 57 | 1022.5 |
| 20260905201417 | 17 | 241 | 1.6 | 3.2 | 0.00 | 0.00 | 0.25 | 58 | 1022.6 |
| 20260905200417 | 17 | 234 | 0.0 | 3.2 | 0.00 | 0.00 | 0.25 | 59 | 1022.2 |
| 20260905195416 | 17 | 234 | 0.0 | 3.2 | 0.00 | 0.00 | 0.25 | 58 | 1022.0 |
| 20260905194416 | 17 | 238 | 3.2 | 3.2 | 0.00 | 0.00 | 0.25 | 58 | 1021.8 |
| 20260905193415 | 17 | 230 | 0.0 | 0.0 | 0.00 | 0.00 | 0.25 | 59 | 1021.8 |
| 20260905192415 | 17 | 233 | 0.0 | 1.6 | 0.00 | 0.00 | 0.25 | 58 | 1021.8 |
| 20260905191414 | 18 | 229 | 0.0 | 0.0 | 0.00 | 0.00 | 0.25 | 57 | 1021.7 |
| 20260905190413 | 18 | 239 | 0.0 | 1.6 | 0.00 | 0.00 | 0.25 | 56 | 1021.6 |
| 20260905185413 | 18 | 231 | 0.0 | 1.6 | 0.00 | 0.00 | 0.25 | 55 | 1021.5 |
| 20260905184412 | 19 | 250 | 3.2 | 8.0 | 0.00 | 0.00 | 0.25 | 54 | 1021.3 |
| 20260905183412 | 18 | 162 | 3.2 | 4.8 | 0.00 | 0.00 | 0.25 | 54 | 1021.2 |
| 20260905182411 | 19 | 233 | 0.0 | 1.6 | 0.00 | 0.00 | 0.25 | 53 | 1021.1 |
| 20260905181411 | 19 | 238 | 1.6 | 3.2 | 0.00 | 0.00 | 0.25 | 52 | 1021.1 |
| 20260905180410 | 20 | 245 | 3.2 | 6.4 | 0.00 | 0.00 | 0.25 | 52 | 1020.8 |
| 20260905175410 | 20 | 221 | 3.2 | 6.4 | 0.00 | 0.00 | 0.25 | 51 | 1020.7 |
| 20260905174409 | 20 | 232 | 1.6 | 3.2 | 0.00 | 0.00 | 0.25 | 52 | 1020.5 |
| 20260905173409 | 20 | 240 | 1.6 | 4.8 | 0.00 | 0.00 | 0.25 | 53 | 1020.4 |
| 20260905172408 | 20 | 236 | 0.0 | 0.0 | 0.00 | 0.00 | 0.25 | 53 | 1020.4 |
| 20260905171408 | 20 | 222 | 6.4 | 8.0 | 0.00 | 0.00 | 0.25 | 52 | 1020.4 |
| 20260905170407 | 20 | 235 | 3.2 | 4.8 | 0.00 | 0.00 | 0.25 | 52 | 1020.4 |
| 20260905165407 | 20 | 248 | 4.8 | 6.4 | 0.00 | 0.00 | 0.25 | 51 | 1020.1 |
| 20260905164406 | 21 | 209 | 1.6 | 3.2 | 0.00 | 0.00 | 0.25 | 50 | 1020.2 |
| 20260905163405 | 21 | 249 | 8.0 | 12.9 | 0.00 | 0.00 | 0.25 | 48 | 1020.4 |
| 20260905162405 | 21 | 175 | 8.0 | 12.9 | 0.00 | 0.00 | 0.25 | 46 | 1019.9 |
| 20260905161404 | 21 | 228 | 11.3 | 16.1 | 0.00 | 0.00 | 0.25 | 46 | 1019.8 |
| 20260905160404 | 21 | 233 | 9.7 | 12.9 | 0.00 | 0.00 | 0.25 | 48 | 1019.9 |
| 20260905155403 | 21 | 259 | 12.9 | 17.7 | 0.00 | 0.00 | 0.25 | 48 | 1019.7 |
| 20260905154403 | 21 | 238 | 8.0 | 9.7 | 0.00 | 0.00 | 0.25 | 47 | 1019.7 |
| 20260905153402 | 22 | 220 | 6.4 | 12.9 | 0.00 | 0.00 | 0.25 | 45 | 1019.8 |
| 20260905152402 | 22 | 234 | 6.4 | 9.7 | 0.00 | 0.00 | 0.25 | 46 | 1019.6 |
| 20260905151401 | 21 | 233 | 3.2 | 6.4 | 0.00 | 0.00 | 0.25 | 49 | 1019.8 |
| 20260905150401 | 22 | 259 | 3.2 | 6.4 | 0.00 | 0.00 | 0.25 | 48 | 1019.9 |
| 20260905145400 | 22 | 233 | 3.2 | 4.8 | 0.00 | 0.00 | 0.25 | 48 | 1019.6 |
| 20260905144359 | 22 | 229 | 8.0 | 14.5 | 0.00 | 0.00 | 0.25 | 49 | 1019.9 |
| 20260905143359 | 22 | 239 | 9.7 | 14.5 | 0.00 | 0.00 | 0.25 | 49 | 1019.7 |
| 20260905142358 | 21 | 266 | 9.7 | 14.5 | 0.00 | 0.00 | 0.25 | 50 | 1020.1 |
| 20260905141358 | 22 | 222 | 6.4 | 8.0 | 0.00 | 0.00 | 0.25 | 50 | 1020.1 |
| 20260905140357 | 21 | 243 | 4.8 | 8.0 | 0.00 | 0.00 | 0.25 | 50 | 1019.9 |
| 20260905135357 | 22 | 274 | 9.7 | 17.7 | 0.00 | 0.00 | 0.25 | 49 | 1020.2 |
| 20260905134356 | 22 | 253 | 9.7 | 12.9 | 0.00 | 0.00 | 0.25 | 47 | 1019.9 |
| 20260905133356 | 21 | 261 | 4.8 | 6.4 | 0.00 | 0.00 | 0.25 | 49 | 1019.8 |
| 20260905132355 | 21 | 198 | 12.9 | 17.7 | 0.00 | 0.00 | 0.25 | 49 | 1019.9 |
| 20260905131355 | 22 | 275 | 19.3 | 33.8 | 0.00 | 0.00 | 0.25 | 46 | 1020.3 |
| 20260905130354 | 22 | 229 | 6.4 | 8.0 | 0.00 | 0.00 | 0.25 | 47 | 1020.4 |
| 20260905125354 | 22 | 235 | 9.7 | 17.7 | 0.00 | 0.00 | 0.25 | 48 | 1020.2 |
| 20260905124353 | 21 | 239 | 4.8 | 9.7 | 0.00 | 0.00 | 0.25 | 52 | 1020.1 |
| 20260905123352 | 21 | 251 | 9.7 | 12.9 | 0.00 | 0.00 | 0.25 | 52 | 1020.3 |
| 20260905122352 | 21 | 266 | 3.2 | 6.4 | 0.00 | 0.00 | 0.25 | 54 | 1020.2 |
| 20260905121351 | 21 | 225 | 3.2 | 6.4 | 0.00 | 0.00 | 0.25 | 54 | 1020.4 |
| 20260905120351 | 21 | 307 | 14.5 | 20.9 | 0.00 | 0.00 | 0.25 | 55 | 1020.5 |
| 20260905115350 | 21 | 242 | 9.7 | 14.5 | 0.00 | 0.00 | 0.25 | 55 | 1020.4 |
| 20260905114350 | 20 | 223 | 11.3 | 14.5 | 0.00 | 0.00 | 0.25 | 60 | 1020.3 |
| 20260905113349 | 20 | 232 | 11.3 | 14.5 | 0.00 | 0.00 | 0.25 | 57 | 1020.6 |
| 20260905112349 | 21 | 236 | 12.9 | 16.1 | 0.00 | 0.00 | 0.25 | 55 | 1020.4 |
| 20260905111348 | 21 | 272 | 8.0 | 12.9 | 0.00 | 0.00 | 0.25 | 54 | 1020.4 |
| 20260905110348 | 20 | 242 | 4.8 | 9.7 | 0.00 | 0.00 | 0.25 | 55 | 1020.5 |
| 20260905105347 | 20 | 253 | 11.3 | 14.5 | 0.00 | 0.00 | 0.25 | 55 | 1020.6 |
| 20260905104347 | 20 | 262 | 9.7 | 12.9 | 0.00 | 0.00 | 0.25 | 55 | 1020.5 |
| 20260905103346 | 20 | 257 | 6.4 | 9.7 | 0.00 | 0.00 | 0.25 | 57 | 1020.5 |
| 20260905102346 | 20 | 265 | 9.7 | 14.5 | 0.00 | 0.00 | 0.25 | 57 | 1020.5 |
| 20260905101345 | 19 | 232 | 12.9 | 16.1 | 0.00 | 0.00 | 0.25 | 59 | 1020.4 |
| 20260905100344 | 19 | 245 | 3.2 | 4.8 | 0.00 | 0.00 | 0.25 | 61 | 1020.4 |
| 20260905095344 | 18 | 239 | 9.7 | 12.9 | 0.00 | 0.00 | 0.25 | 61 | 1020.7 |
| 20260905094343 | 19 | 215 | 8.0 | 14.5 | 0.00 | 0.00 | 0.25 | 61 | 1020.7 |
| 20260905093343 | 18 | 242 | 14.5 | 20.9 | 0.00 | 0.00 | 0.25 | 63 | 1020.7 |
| 20260905092342 | 18 | 254 | 6.4 | 9.7 | 0.00 | 0.00 | 0.25 | 65 | 1020.6 |
| 20260905091342 | 18 | 246 | 1.6 | 3.2 | 0.00 | 0.00 | 0.25 | 68 | 1020.7 |
| 20260905090341 | 17 | 247 | 4.8 | 8.0 | 0.00 | 0.00 | 0.25 | 70 | 1020.8 |
| 20260905085341 | 16 | 212 | 0.0 | 3.2 | 0.00 | 0.00 | 0.25 | 75 | 1020.7 |
| 20260905084340 | 16 | 235 | 3.2 | 4.8 | 0.00 | 0.00 | 0.25 | 77 | 1020.8 |
| 20260905083340 | 16 | 229 | 0.0 | 3.2 | 0.00 | 0.00 | 0.25 | 78 | 1020.5 |
| 20260905082339 | 16 | 238 | 3.2 | 4.8 | 0.00 | 0.00 | 0.25 | 79 | 1020.3 |
| 20260905081339 | 15 | 235 | 0.0 | 0.0 | 0.00 | 0.00 | 0.25 | 81 | 1020.6 |
| 20260905080338 | 15 | 232 | 1.6 | 3.2 | 0.00 | 0.00 | 0.25 | 83 | 1020.5 |
| 20260905075338 | 15 | 232 | 3.2 | 6.4 | 0.00 | 0.00 | 0.25 | 84 | 1020.4 |
| 20260905074337 | 15 | 218 | 3.2 | 4.8 | 0.00 | 0.00 | 0.25 | 85 | 1020.3 |
| 20260905073336 | 14 | 240 | 0.0 | 0.0 | 0.00 | 0.00 | 0.25 | 85 | 1019.9 |
| 20260905072336 | 14 | 277 | 0.0 | 1.6 | 0.00 | 0.00 | 0.25 | 85 | 1019.7 |
| 20260905071335 | 14 | 206 | 1.6 | 3.2 | 0.00 | 0.00 | 0.25 | 85 | 1019.2 |
| 20260905070335 | 13 | 227 | 3.2 | 3.2 | 0.00 | 0.00 | 0.25 | 85 | 1019.0 |
| 20260905065334 | 14 | 235 | 1.6 | 3.2 | 0.00 | 0.00 | 0.25 | 85 | 1019.3 |
| 20260905064334 | 14 | 228 | 0.0 | 1.6 | 0.18 | 0.00 | 0.25 | 85 | 1019.5 |
| 20260905063333 | 13 | 228 | 0.0 | 0.0 | 0.00 | 0.00 | 0.23 | 84 | 1019.5 |
| 20260905062333 | 13 | 225 | 0.0 | 0.0 | 0.00 | 0.00 | 0.23 | 84 | 1019.3 |
| 20260905061332 | 13 | 226 | 0.0 | 0.0 | 0.00 | 0.00 | 0.23 | 83 | 1019.6 |
| 20260905060332 | 13 | 233 | 0.0 | 1.6 | 0.28 | 0.00 | 0.23 | 83 | 1019.8 |
| 20260905055331 | 14 | 232 | 0.0 | 0.0 | 0.10 | 0.00 | 0.18 | 82 | 1020.6 |
| 20260905054331 | 14 | 237 | 3.2 | 3.2 | 0.18 | 0.00 | 0.15 | 81 | 1020.4 |
| 20260905053330 | 14 | 227 | 4.8 | 6.4 | 0.00 | 0.00 | 0.13 | 82 | 1019.9 |
| 20260905052329 | 14 | 244 | 3.2 | 3.2 | 0.00 | 0.00 | 0.13 | 83 | 1019.6 |
| 20260905051329 | 14 | 231 | 0.0 | 1.6 | 0.00 | 0.00 | 0.13 | 82 | 1019.2 |
| 20260905050328 | 15 | 226 | 0.0 | 0.0 | 0.00 | 0.00 | 0.13 | 82 | 1019.1 |
| 20260905045328 | 15 | 233 | 0.0 | 0.0 | 0.00 | 0.00 | 0.13 | 81 | 1019.6 |
| 20260905044327 | 14 | 233 | 0.0 | 0.0 | 0.00 | 0.00 | 0.13 | 80 | 1019.0 |
| 20260905043327 | 14 | 231 | 0.0 | 0.0 | 0.00 | 0.00 | 0.13 | 79 | 1018.7 |
| 20260905042326 | 15 | 243 | 1.6 | 3.2 | 0.00 | 0.00 | 0.13 | 78 | 1018.7 |
| 20260905041326 | 15 | 222 | 1.6 | 3.2 | 0.28 | 0.00 | 0.08 | 77 | 1018.7 |
| 20260905040325 | 15 | 231 | 0.0 | 0.0 | 0.00 | 0.00 | 0.05 | 75 | 1018.2 |
| 20260905035325 | 15 | 226 | 0.0 | 0.0 | 0.10 | 0.00 | 0.05 | 74 | 1018.3 |
| 20260905034323 | 16 | 237 | 3.2 | 3.2 | 0.00 | 0.00 | 0.03 | 73 | 1018.2 |
| 20260905033323 | 16 | 239 | 3.2 | 4.8 | 0.00 | 0.00 | 0.03 | 71 | 1018.1 |
| 20260905032322 | 16 | 239 | 1.6 | 3.2 | 0.00 | 0.00 | 0.03 | 68 | 1017.7 |
| 20260905031322 | 16 | 231 | 0.0 | 1.6 | 0.00 | 0.00 | 0.03 | 66 | 1017.3 |
| 20260905030321 | 17 | 211 | 0.0 | 3.2 | 0.00 | 0.00 | 0.03 | 65 | 1017.1 |
| 20260905025320 | 17 | 220 | 1.6 | 4.8 | 0.00 | 0.00 | 0.03 | 64 | 1017.6 |
| 20260905024320 | 17 | 228 | 0.0 | 0.0 | 0.00 | 0.00 | 0.03 | 63 | 1017.2 |
| 20260905023319 | 17 | 226 | 1.6 | 3.2 | 0.00 | 0.00 | 0.03 | 64 | 1016.7 |
| 20260905022319 | 17 | 237 | 8.0 | 9.7 | 0.00 | 0.00 | 0.03 | 64 | 1016.7 |
| 20260905021318 | 17 | 312 | 1.6 | 1.6 | 0.00 | 0.00 | 0.03 | 67 | 1016.5 |
| 20260905020318 | 17 | 227 | 0.0 | 1.6 | 0.00 | 0.00 | 0.03 | 70 | 1016.4 |
| 20260905015317 | 18 | 259 | 1.6 | 4.8 | 0.18 | 0.00 | 0.03 | 71 | 1016.0 |
| 20260905014317 | 19 | 232 | 3.2 | 4.8 | 0.00 | 0.00 | 0.00 | 62 | 1015.9 |
| 20260905013316 | 20 | 309 | 6.4 | 8.0 | 0.00 | 0.00 | 0.00 | 61 | 1015.4 |
| 20260905012316 | 21 | 220 | 8.0 | 16.1 | 0.00 | 0.00 | 0.00 | 59 | 1015.1 |
| 20260905011315 | 22 | 254 | 3.2 | 4.8 | 0.00 | 0.00 | 0.00 | 55 | 1014.6 |
| 20260905010314 | 21 | 227 | 0.0 | 0.0 | 0.00 | 0.00 | 0.00 | 56 | 1014.6 |
| 20260905005314 | 21 | 224 | 0.0 | 0.0 | 0.00 | 0.00 | 0.00 | 56 | 1014.4 |
| 20260905004313 | 20 | 221 | 0.0 | 0.0 | 0.00 | 0.00 | 0.00 | 58 | 1014.3 |
| 20260905003313 | 20 | 214 | 1.6 | 3.2 | 0.00 | 0.00 | 0.00 | 58 | 1014.2 |
| 20260905002312 | 20 | 198 | 1.6 | 3.2 | 0.00 | 0.00 | 0.00 | 58 | 1013.9 |
| 20260905001312 | 20 | 229 | 0.0 | 0.0 | 0.00 | 0.00 | 0.00 | 59 | 1014.0 |
| 20260905000311 | 20 | 227 | 0.0 | 0.0 | 0.00 | 0.00 | 0.00 | 59 | 1014.0 |
| 20260904235311 | 20 | 224 | 0.0 | 0.0 | 0.00 | 0.00 | 0.00 | 59 | 1014.0 |
| 20260904234310 | 20 | 230 | 0.0 | 0.0 | 0.00 | 0.00 | 0.00 | 60 | 1013.9 |
| 20260904233310 | 19 | 230 | 0.0 | 1.6 | 0.00 | 0.00 | 0.00 | 61 | 1013.9 |
| 20260904232309 | 20 | 218 | 0.0 | 0.0 | 0.00 | 0.00 | 0.00 | 59 | 1013.8 |
| 20260904231309 | 20 | 200 | 1.6 | 1.6 | 0.00 | 0.00 | 0.00 | 59 | 1013.7 |
| 20260904230308 | 20 | 221 | 0.0 | 1.6 | 0.00 | 0.00 | 0.00 | 59 | 1013.5 |
| 20260904225308 | 20 | 230 | 0.0 | 0.0 | 0.00 | 0.00 | 0.00 | 58 | 1013.7 |
| 20260904224307 | 19 | 238 | 1.6 | 3.2 | 0.00 | 0.00 | 0.00 | 60 | 1013.5 |